createdAt,value
2017-08-30T06:39:55.949Z,27.1
2017-08-30T06:40:03.151Z,27.1
2017-08-30T06:41:02.621Z,27.2
2017-08-30T06:42:03.023Z,27.2
2017-08-30T06:43:03.072Z,27.2
2017-08-30T06:44:02.734Z,27.1
2017-08-30T06:45:03.164Z,27.1
2017-08-30T06:47:03.288Z,27.1
2017-08-30T06:48:08.269Z,27.1
2017-08-30T06:49:03.317Z,27.1
2017-08-30T06:50:03.368Z,27.1
2017-08-30T06:51:03.416Z,27.1
2017-08-30T06:52:03.455Z,27.1
2017-08-30T06:53:03.316Z,27.1
2017-08-30T06:54:03.570Z,27.1
2017-08-30T06:55:04.113Z,27.2
2017-08-30T06:56:02.963Z,27.2
2017-08-30T06:57:02.628Z,27.2
2017-08-30T06:58:02.866Z,27.2
2017-08-30T06:59:02.709Z,27.2
2017-08-30T07:00:09.218Z,27.3
2017-08-30T07:01:02.853Z,27.3
2017-08-30T07:02:03.281Z,27.3
2017-08-30T07:03:03.357Z,27.3
2017-08-30T07:04:02.393Z,27.3
2017-08-30T07:05:03.249Z,27.3
2017-08-30T07:06:03.787Z,27.3
2017-08-30T07:07:02.842Z,27.3
2017-08-30T07:08:03.075Z,27.3
2017-08-30T07:09:02.933Z,27.3
2017-08-30T07:10:03.164Z,27.3
2017-08-30T07:11:03.022Z,27.4
2017-08-30T07:12:02.691Z,27.4
2017-08-30T07:13:02.732Z,27.4
2017-08-30T07:14:02.802Z,27.4
2017-08-30T07:15:02.657Z,27.4
2017-08-30T07:16:02.708Z,27.4
2017-08-30T07:17:03.289Z,27.3
2017-08-30T07:18:02.778Z,27.3
2017-08-30T07:19:03.338Z,27.3
2017-08-30T07:20:03.620Z,27.3
2017-08-30T07:21:02.876Z,27.3
2017-08-30T07:22:02.916Z,27.3
2017-08-30T07:23:03.136Z,27.4
2017-08-30T07:24:03.011Z,27.4
2017-08-30T07:25:03.250Z,27.4
2017-08-30T07:26:02.892Z,27.3
2017-08-30T07:27:02.919Z,27.4
2017-08-30T07:28:03.013Z,27.4
2017-08-30T07:29:02.856Z,27.4
2017-08-30T07:30:03.126Z,27.4
2017-08-30T07:31:02.975Z,27.4
2017-08-30T07:32:03.006Z,27.5
2017-08-30T07:33:02.674Z,27.5
2017-08-30T07:34:03.212Z,27.5
2017-08-30T07:35:03.266Z,27.5
2017-08-30T07:36:03.143Z,27.5
2017-08-30T07:37:02.806Z,27.5
2017-08-30T07:38:03.230Z,27.6
2017-08-30T07:39:02.903Z,27.6
2017-08-30T07:40:03.144Z,27.6
2017-08-30T07:41:03.006Z,27.6
2017-08-30T07:42:03.266Z,27.6
2017-08-30T07:43:03.321Z,27.6
2017-08-30T07:44:03.670Z,27.6
2017-08-30T07:45:02.542Z,27.6
2017-08-30T07:46:02.818Z,27.6
2017-08-30T07:47:03.237Z,27.6
2017-08-30T07:48:03.472Z,27.7
2017-08-30T07:49:02.332Z,27.6
2017-08-30T07:50:03.239Z,27.6
2017-08-30T07:51:03.336Z,27.7
2017-08-30T07:52:03.222Z,27.7
2017-08-30T07:53:03.480Z,27.7
2017-08-30T07:54:03.157Z,27.7
2017-08-30T07:55:03.497Z,27.7
2017-08-30T07:56:02.717Z,27.7
2017-08-30T07:57:02.569Z,27.7
2017-08-30T07:58:02.621Z,27.7
2017-08-30T07:59:02.666Z,27.7
2017-08-30T08:00:02.895Z,27.8
2017-08-30T08:01:02.923Z,27.8
2017-08-30T08:02:02.972Z,27.8
2017-08-30T08:03:02.816Z,27.8
2017-08-30T08:04:02.696Z,27.8
2017-08-30T08:05:02.740Z,27.8
2017-08-30T08:06:03.979Z,27.8
2017-08-30T08:07:02.682Z,27.8
2017-08-30T08:08:02.738Z,27.8
2017-08-30T08:09:02.980Z,27.8
2017-08-30T08:10:03.010Z,27.8
2017-08-30T08:11:03.238Z,27.8
2017-08-30T08:12:03.284Z,27.8
2017-08-30T08:13:03.325Z,27.8
2017-08-30T08:14:03.359Z,27.9
2017-08-30T08:15:03.025Z,27.9
2017-08-30T08:16:03.064Z,27.8
2017-08-30T08:17:03.411Z,27.9
2017-08-30T08:18:03.462Z,27.9
2017-08-30T08:19:03.313Z,27.9
2017-08-30T08:20:03.563Z,27.9
2017-08-30T08:21:03.596Z,27.9
2017-08-30T08:22:03.444Z,27.9
2017-08-30T08:23:03.480Z,27.9
2017-08-30T08:24:03.325Z,27.9
2017-08-30T08:25:03.362Z,28
2017-08-30T08:26:03.215Z,28
2017-08-30T08:27:03.700Z,28
2017-08-30T08:28:03.540Z,28
2017-08-30T08:29:03.794Z,28
2017-08-30T08:30:02.840Z,28
2017-08-30T08:31:02.688Z,28
2017-08-30T08:32:03.740Z,28
2017-08-30T08:33:03.605Z,28
2017-08-30T08:34:03.446Z,28
2017-08-30T08:35:03.857Z,28
2017-08-30T08:36:03.116Z,28
2017-08-30T08:37:03.249Z,28
2017-08-30T08:38:03.616Z,28
2017-08-30T08:39:03.465Z,28
2017-08-30T08:40:03.523Z,28.1
2017-08-30T08:41:03.767Z,28.1
2017-08-30T08:42:03.824Z,28.1
2017-08-30T08:43:02.690Z,28
2017-08-30T08:44:02.560Z,28.1
2017-08-30T08:45:03.604Z,28.1
2017-08-30T08:46:03.500Z,28.1
2017-08-30T08:47:03.537Z,28.1
2017-08-30T08:48:03.403Z,28.1
2017-08-30T08:49:43.926Z,28.1
2017-08-30T08:59:45.005Z,28.2
2017-08-30T09:09:42.690Z,28.3
2017-08-30T09:10:41.942Z,28.3
2017-08-30T09:11:42.202Z,28.2
2017-08-30T09:12:42.543Z,28.3
2017-08-30T09:13:41.763Z,28.3
2017-08-30T09:14:42.328Z,28.3
2017-08-30T09:15:42.422Z,28.3
2017-08-30T09:16:41.921Z,28.3
2017-08-30T09:17:41.976Z,28.3
2017-08-30T09:18:42.018Z,28.4
2017-08-30T09:19:42.306Z,28.4
2017-08-30T09:20:42.419Z,28.3
2017-08-30T09:21:41.882Z,28.4
2017-08-30T09:22:42.117Z,28.4
2017-08-30T09:23:57.463Z,28.4
2017-08-30T09:25:58.557Z,28.5
2017-08-30T09:26:57.305Z,28.5
2017-08-30T09:27:45.194Z,28.5
2017-08-30T09:29:01.381Z,28.5
2017-08-30T09:30:08.021Z,28.5
2017-08-30T09:30:58.678Z,28.5
2017-08-30T09:32:19.836Z,28.6
2017-08-30T09:33:13.092Z,28.6
2017-08-30T09:35:01.292Z,28.6
2017-08-30T09:36:56.088Z,28.7
2017-08-30T09:37:51.726Z,28.7
2017-08-30T09:46:03.965Z,28.8
2017-08-30T09:49:16.712Z,28.9
2017-08-30T10:00:06.145Z,28.9
2017-08-30T10:01:23.286Z,28.9
2017-08-30T10:12:57.149Z,29.1
2017-08-30T10:13:24.768Z,29.1
2017-08-30T10:14:26.022Z,29.1
2017-08-30T10:15:25.425Z,29.1
2017-08-30T10:16:25.295Z,29.2
2017-08-30T10:17:25.140Z,29.2
2017-08-30T10:18:25.167Z,29.2
2017-08-30T10:19:25.017Z,29.2
2017-08-30T10:20:25.227Z,29.2
2017-08-30T10:21:25.248Z,29.2
2017-08-30T10:22:25.473Z,29.2
2017-08-30T10:23:25.503Z,29.2
2017-08-30T10:24:25.731Z,29.3
2017-08-30T10:25:25.567Z,29.3
2017-08-30T10:26:25.785Z,29.4
2017-08-30T10:27:24.832Z,29.4
2017-08-30T10:28:24.686Z,29.4
2017-08-30T10:29:25.828Z,29.4
2017-08-30T10:30:25.033Z,29.5
2017-08-30T10:31:25.073Z,29.5
2017-08-30T10:32:24.982Z,29.5
2017-08-30T10:33:25.013Z,29.5
2017-08-30T10:34:25.233Z,29.5
2017-08-30T10:35:25.258Z,29.5
2017-08-30T10:36:25.484Z,29.5
2017-08-30T10:37:25.152Z,29.6
2017-08-30T10:38:25.379Z,29.6
2017-08-30T10:39:25.032Z,29.6
2017-08-30T10:40:25.551Z,29.7
2017-08-30T10:41:25.968Z,29.7
2017-08-30T10:43:24.916Z,29.7
2017-08-30T10:44:25.333Z,29.7
2017-08-30T10:45:24.983Z,29.8
2017-08-30T10:46:25.071Z,29.8
2017-08-30T10:47:24.727Z,29.8
2017-08-30T10:48:25.960Z,29.8
2017-08-30T10:49:24.846Z,29.9
2017-08-30T10:50:26.036Z,29.9
2017-08-30T10:51:24.869Z,29.9
2017-08-30T10:52:25.531Z,29.9
2017-08-30T10:53:25.955Z,29.9
2017-08-30T10:54:24.630Z,30
2017-08-30T10:55:25.868Z,30
2017-08-30T10:56:24.823Z,30
2017-08-30T10:57:25.056Z,30
2017-08-30T10:58:25.284Z,30
2017-08-30T10:59:24.935Z,30
2017-08-30T11:00:25.179Z,30.1
2017-08-30T11:01:25.021Z,30.1
2017-08-30T11:02:03.113Z,30.1
2017-08-30T11:03:03.529Z,30.1
2017-08-30T11:04:03.398Z,30.1
2017-08-30T11:05:03.634Z,30.2
2017-08-30T11:06:02.668Z,30.1
2017-08-30T11:07:03.727Z,30.2
2017-08-30T11:08:02.759Z,30.2
2017-08-30T11:09:02.419Z,30.2
2017-08-30T11:10:03.453Z,30.2
2017-08-30T11:11:03.314Z,30.2
2017-08-30T11:12:03.652Z,30.3
2017-08-30T11:13:02.679Z,30.3
2017-08-30T11:14:03.333Z,30.3
2017-08-30T11:15:03.561Z,30.4
2017-08-30T11:16:03.604Z,30.3
2017-08-30T11:17:03.457Z,30.3
2017-08-30T11:18:03.497Z,30.3
2017-08-30T11:19:03.910Z,30.4
2017-08-30T11:20:02.950Z,30.5
2017-08-30T11:21:03.007Z,30.4
2017-08-30T11:22:02.854Z,30.4
2017-08-30T11:23:03.434Z,30.4
2017-08-30T11:24:03.867Z,30.4
2017-08-30T11:25:02.710Z,30.4
2017-08-30T11:26:03.374Z,30.5
2017-08-30T11:27:03.613Z,30.5
2017-08-30T11:28:03.640Z,30.5
2017-08-30T11:29:03.487Z,30.5
2017-08-30T11:30:03.153Z,30.5
2017-08-30T11:31:03.567Z,30.5
2017-08-30T11:32:03.413Z,30.5
2017-08-30T11:33:03.257Z,30.5
2017-08-30T11:34:03.292Z,30.5
2017-08-30T11:35:03.699Z,30.6
2017-08-30T11:36:03.379Z,30.6
2017-08-30T11:37:03.599Z,30.7
2017-08-30T11:38:03.264Z,30.7
2017-08-30T11:39:03.242Z,30.7
2017-08-30T11:40:03.281Z,30.7
2017-08-30T11:41:03.522Z,30.7
2017-08-30T11:42:03.543Z,30.8
2017-08-30T11:43:03.401Z,30.8
2017-08-30T11:44:03.084Z,30.8
2017-08-30T11:45:02.929Z,30.9
2017-08-30T11:46:02.787Z,30.9
2017-08-30T11:47:03.015Z,30.9
2017-08-30T11:48:02.676Z,30.9
2017-08-30T11:49:02.331Z,30.9
2017-08-30T11:50:03.909Z,30.9
2017-08-30T11:51:02.636Z,30.9
2017-08-30T11:52:02.685Z,30.9
2017-08-30T11:53:02.902Z,30.9
2017-08-30T11:54:03.350Z,31
2017-08-30T11:55:03.006Z,30.9
2017-08-30T11:56:03.087Z,31
2017-08-30T11:57:03.359Z,31
2017-08-30T11:58:03.017Z,31
2017-08-30T11:59:03.074Z,31
2017-08-30T12:00:02.934Z,31
2017-08-30T12:01:03.797Z,31
2017-08-30T12:02:03.060Z,31.1
2017-08-30T12:03:03.098Z,31
2017-08-30T12:04:02.957Z,31
2017-08-30T12:05:03.023Z,31
2017-08-30T12:06:02.892Z,31
2017-08-30T12:07:02.922Z,31
2017-08-30T12:08:03.961Z,30.9
2017-08-30T12:09:03.798Z,30.9
2017-08-30T12:10:03.029Z,31
2017-08-30T12:11:03.080Z,30.9
2017-08-30T12:12:03.328Z,30.8
2017-08-30T12:13:03.172Z,30.8
2017-08-30T12:14:03.225Z,30.8
2017-08-30T12:15:03.081Z,30.8
2017-08-30T12:16:02.925Z,30.8
2017-08-30T12:17:04.144Z,30.7
2017-08-30T12:18:02.613Z,30.7
2017-08-30T12:19:03.465Z,30.7
2017-08-30T12:20:03.133Z,30.6
2017-08-30T12:21:03.346Z,30.6
2017-08-30T12:22:03.380Z,30.6
2017-08-30T12:23:03.054Z,30.6
2017-08-30T12:24:03.132Z,30.7
2017-08-30T12:25:02.797Z,30.7
2017-08-30T12:26:03.648Z,30.8
2017-08-30T12:27:04.080Z,30.8
2017-08-30T12:28:03.610Z,30.8
2017-08-30T12:29:03.855Z,30.9
2017-08-30T12:30:03.900Z,30.9
2017-08-30T12:31:02.785Z,31
2017-08-30T12:32:04.242Z,31
2017-08-30T12:33:03.647Z,31
2017-08-30T12:34:03.889Z,31
2017-08-30T12:35:03.545Z,31
2017-08-30T12:36:03.390Z,31.1
2017-08-30T12:37:03.436Z,31
2017-08-30T12:38:03.463Z,31
2017-08-30T12:39:03.603Z,31
2017-08-30T12:40:03.449Z,31
2017-08-30T12:41:03.500Z,31
2017-08-30T12:42:03.548Z,31
2017-08-30T12:43:03.588Z,31.1
2017-08-30T12:44:03.647Z,31.1
2017-08-30T12:45:03.123Z,31
2017-08-30T12:46:03.149Z,31
2017-08-30T12:47:03.397Z,31
2017-08-30T12:48:03.424Z,31.1
2017-08-30T12:49:03.274Z,31.2
2017-08-30T12:50:03.104Z,31.2
2017-08-30T12:51:02.981Z,31.3
2017-08-30T12:52:03.877Z,31.2
2017-08-30T12:53:03.576Z,31.4
2017-08-30T12:54:03.469Z,31.4
2017-08-30T12:55:03.702Z,31.5
2017-08-30T12:56:03.541Z,31.5
2017-08-30T12:57:03.561Z,31.4
2017-08-30T12:58:03.604Z,31.5
2017-08-30T12:59:03.444Z,31.4
2017-08-30T13:00:03.425Z,31.4
2017-08-30T13:01:04.083Z,31.4
2017-08-30T13:02:04.310Z,31.3
2017-08-30T13:03:03.968Z,31.3
2017-08-30T13:04:03.818Z,31.3
2017-08-30T13:05:04.237Z,31.3
2017-08-30T13:06:03.908Z,31.2
2017-08-30T13:07:03.935Z,31.2
2017-08-30T13:08:03.777Z,31.4
2017-08-30T13:09:03.620Z,31.4
2017-08-30T13:10:03.466Z,31.4
2017-08-30T13:11:03.710Z,31.4
2017-08-30T13:12:03.552Z,31.4
2017-08-30T13:13:03.388Z,31.4
2017-08-30T13:14:03.660Z,31.4
2017-08-30T13:15:03.719Z,31.3
2017-08-30T13:16:03.200Z,31.3
2017-08-30T13:17:04.105Z,31.3
2017-08-30T13:18:04.545Z,31.4
2017-08-30T13:19:03.797Z,31.4
2017-08-30T13:20:03.847Z,31.4
2017-08-30T13:21:04.045Z,31.5
2017-08-30T13:22:04.092Z,31.5
2017-08-30T13:23:04.305Z,31.5
2017-08-30T13:24:04.144Z,31.5
2017-08-30T13:25:04.378Z,31.6
2017-08-30T13:26:04.449Z,31.7
2017-08-30T13:27:04.535Z,31.6
2017-08-30T13:28:04.384Z,31.6
2017-08-30T13:29:04.039Z,31.6
2017-08-30T13:30:03.874Z,31.7
2017-08-30T13:31:03.714Z,31.7
2017-08-30T13:32:04.283Z,31.7
2017-08-30T13:33:04.313Z,31.7
2017-08-30T13:34:04.734Z,31.7
2017-08-30T13:35:03.765Z,31.7
2017-08-30T13:36:03.623Z,31.7
2017-08-30T13:37:03.470Z,31.7
2017-08-30T13:38:03.686Z,31.8
2017-08-30T13:39:03.900Z,31.7
2017-08-30T13:40:03.930Z,31.7
2017-08-30T13:41:03.760Z,31.7
2017-08-30T13:42:03.616Z,31.6
2017-08-30T13:43:03.804Z,31.6
2017-08-30T13:44:04.020Z,31.5
2017-08-30T13:45:04.237Z,31.4
2017-08-30T13:46:04.354Z,31.4
2017-08-30T13:47:03.604Z,31.5
2017-08-30T13:48:03.930Z,31.5
2017-08-30T13:49:03.455Z,31.5
2017-08-30T13:50:04.716Z,31.4
2017-08-30T13:51:04.229Z,31.4
2017-08-30T13:52:04.055Z,31.3
2017-08-30T13:53:04.861Z,31.2
2017-08-30T13:54:04.486Z,31.3
2017-08-30T13:55:04.742Z,31.2
2017-08-30T13:56:04.192Z,31.2
2017-08-30T13:57:04.139Z,31.1
2017-08-30T13:58:04.434Z,31
2017-08-30T13:59:03.644Z,31.1
2017-08-30T14:00:03.633Z,31.1
2017-08-30T14:01:03.554Z,31
2017-08-30T14:02:03.664Z,31.1
2017-08-30T14:03:03.120Z,31
2017-08-30T14:04:03.744Z,31
2017-08-30T14:05:02.929Z,31
2017-08-30T14:06:02.744Z,31
2017-08-30T14:07:02.988Z,30.9
2017-08-30T14:08:03.555Z,30.8
2017-08-30T14:09:04.120Z,30.9
2017-08-30T14:10:02.903Z,30.9
2017-08-30T14:11:02.987Z,30.9
2017-08-30T14:12:03.051Z,30.9
2017-08-30T14:13:02.705Z,30.8
2017-08-30T14:14:03.550Z,30.8
2017-08-30T14:15:03.594Z,30.9
2017-08-30T14:16:03.064Z,30.8
2017-08-30T14:17:02.718Z,30.8
2017-08-30T14:18:03.035Z,30.8
2017-08-30T14:19:03.289Z,30.8
2017-08-30T14:20:03.446Z,30.9
2017-08-30T14:21:03.481Z,30.9
2017-08-30T14:22:03.151Z,30.8
2017-08-30T14:23:03.185Z,30.8
2017-08-30T14:24:03.042Z,30.8
2017-08-30T14:25:03.288Z,30.8
2017-08-30T14:26:03.161Z,30.8
2017-08-30T14:27:03.211Z,30.7
2017-08-30T14:28:03.248Z,30.7
2017-08-30T14:29:03.496Z,30.8
2017-08-30T14:30:03.945Z,30.8
2017-08-30T14:31:03.535Z,30.9
2017-08-30T14:32:03.569Z,30.8
2017-08-30T14:33:03.441Z,30.7
2017-08-30T14:34:03.665Z,30.7
2017-08-30T14:35:02.708Z,30.7
2017-08-30T14:36:03.669Z,30.7
2017-08-30T14:37:03.527Z,30.7
2017-08-30T14:38:03.619Z,30.6
2017-08-30T14:39:03.313Z,30.6
2017-08-30T14:40:02.994Z,30.6
2017-08-30T14:41:03.572Z,30.5
2017-08-30T14:42:03.616Z,30.5
2017-08-30T14:43:04.194Z,30.4
2017-08-30T14:44:03.272Z,30.4
2017-08-30T14:45:02.933Z,30.5
2017-08-30T14:46:02.986Z,30.4
2017-08-30T14:47:02.831Z,30.4
2017-08-30T14:48:02.673Z,30.4
2017-08-30T14:49:02.742Z,30.5
2017-08-30T14:50:03.394Z,30.5
2017-08-30T14:51:03.264Z,30.4
2017-08-30T14:52:03.324Z,30.5
2017-08-30T14:53:03.710Z,30.4
2017-08-30T14:54:03.378Z,30.5
2017-08-30T14:55:03.617Z,30.5
2017-08-30T14:56:03.477Z,30.4
2017-08-30T14:57:03.520Z,30.5
2017-08-30T14:58:03.198Z,30.4
2017-08-30T14:59:03.259Z,30.4
2017-08-30T15:00:03.110Z,30.5
2017-08-30T15:01:03.471Z,30.4
2017-08-30T15:02:03.747Z,30.4
2017-08-30T15:03:04.020Z,30.4
2017-08-30T15:04:03.842Z,30.4
2017-08-30T15:05:03.697Z,30.4
2017-08-30T15:06:03.542Z,30.5
2017-08-30T15:07:03.183Z,30.4
2017-08-30T15:08:03.299Z,30.5
2017-08-30T15:09:03.734Z,30.5
2017-08-30T15:10:04.205Z,30.4
2017-08-30T15:11:03.286Z,30.4
2017-08-30T15:12:03.425Z,30.4
2017-08-30T15:13:03.480Z,30.4
2017-08-30T15:14:04.248Z,30.3
2017-08-30T15:15:03.521Z,30.4
2017-08-30T15:16:03.703Z,30.4
2017-08-30T15:17:03.630Z,30.3
2017-08-30T15:18:03.973Z,30.3
2017-08-30T15:19:03.341Z,30.3
2017-08-30T15:20:03.577Z,30.3
2017-08-30T15:21:03.872Z,30.2
2017-08-30T15:22:03.867Z,30.3
2017-08-30T15:23:04.220Z,30.3
2017-08-30T15:24:03.038Z,30.3
2017-08-30T15:25:04.315Z,30.3
2017-08-30T15:26:02.820Z,30.4
2017-08-30T15:27:03.688Z,30.3
2017-08-30T15:28:03.773Z,30.3
2017-08-30T15:29:03.254Z,30.4
2017-08-30T15:30:03.232Z,30.4
2017-08-30T15:31:03.096Z,30.3
2017-08-30T15:32:03.321Z,30.3
2017-08-30T15:33:03.171Z,30.2
2017-08-30T15:34:04.166Z,30.2
2017-08-30T15:35:03.038Z,30.2
2017-08-30T15:36:04.251Z,30.2
2017-08-30T15:37:03.540Z,30.2
2017-08-30T15:38:03.603Z,30.3
2017-08-30T15:39:04.033Z,30.2
2017-08-30T15:40:03.538Z,30.3
2017-08-30T15:41:03.959Z,30.3
2017-08-30T15:42:03.222Z,30.1
2017-08-30T15:43:03.075Z,30.2
2017-08-30T15:44:03.302Z,30.2
2017-08-30T15:45:03.531Z,30.2
2017-08-30T15:46:03.591Z,30.2
2017-08-30T15:47:03.928Z,30.2
2017-08-30T15:49:03.068Z,30.2
2017-08-30T15:50:03.296Z,30.2
2017-08-30T15:51:03.538Z,30.2
2017-08-30T15:52:03.423Z,30.2
2017-08-30T15:53:03.510Z,30.2
2017-08-30T15:54:03.793Z,30.2
2017-08-30T15:55:04.063Z,30.3
2017-08-30T15:56:04.176Z,30.3
2017-08-30T15:57:02.865Z,30.3
2017-08-30T15:58:03.718Z,30.2
2017-08-30T15:59:03.798Z,30.3
2017-08-30T16:00:03.901Z,30.2
2017-08-30T16:01:03.518Z,30
2017-08-30T16:02:03.575Z,30
2017-08-30T16:03:03.697Z,30
2017-08-30T16:04:04.475Z,30.1
2017-08-30T16:05:03.402Z,30.1
2017-08-30T16:06:03.714Z,30.2
2017-08-30T16:07:03.725Z,30.1
2017-08-30T16:08:03.506Z,30.1
2017-08-30T16:09:03.825Z,30.1
2017-08-30T16:10:03.652Z,30.1
2017-08-30T16:11:03.969Z,30.2
2017-08-30T16:12:08.058Z,30.1
2017-08-30T16:13:02.938Z,30.1
2017-08-30T16:14:03.377Z,30.1
2017-08-30T16:15:03.649Z,30.2
2017-08-30T16:16:03.750Z,30.2
2017-08-30T16:17:04.372Z,30.1
2017-08-30T16:18:03.203Z,30
2017-08-30T16:19:03.350Z,30
2017-08-30T16:20:04.311Z,29.9
2017-08-30T16:21:03.512Z,29.9
2017-08-30T16:22:03.461Z,29.9
2017-08-30T16:23:03.427Z,29.9
2017-08-30T16:24:03.537Z,29.8
2017-08-30T16:25:03.427Z,29.8
2017-08-30T16:26:03.525Z,29.8
2017-08-30T16:27:03.587Z,29.8
2017-08-30T16:28:03.670Z,30
2017-08-30T16:29:03.775Z,30.1
2017-08-30T16:30:03.632Z,30.1
2017-08-30T16:31:04.232Z,30.1
2017-08-30T16:32:03.273Z,30
2017-08-30T16:33:03.317Z,30.1
2017-08-30T16:34:03.379Z,30.1
2017-08-30T16:35:03.215Z,30.1
2017-08-30T16:36:03.429Z,30
2017-08-30T16:37:03.520Z,30
2017-08-30T16:38:03.574Z,30
2017-08-30T16:39:03.809Z,30
2017-08-30T16:40:03.673Z,30
2017-08-30T16:41:03.525Z,30
2017-08-30T16:42:04.235Z,30
2017-08-30T16:43:03.713Z,30
2017-08-30T16:44:04.264Z,30
2017-08-30T16:45:02.764Z,30
2017-08-30T16:46:03.457Z,30
2017-08-30T16:47:03.557Z,29.9
2017-08-30T16:48:03.214Z,29.9
2017-08-30T16:49:03.493Z,30
2017-08-30T16:50:03.809Z,30
2017-08-30T16:51:03.481Z,30
2017-08-30T16:52:03.726Z,30
2017-08-30T16:53:04.108Z,29.9
2017-08-30T16:54:03.165Z,30
2017-08-30T16:55:03.239Z,30
2017-08-30T16:56:03.667Z,29.9
2017-08-30T16:57:03.910Z,29.9
2017-08-30T16:58:04.390Z,30
2017-08-30T16:59:03.239Z,30
2017-08-30T17:00:03.524Z,30
2017-08-30T17:01:03.093Z,29.9
2017-08-30T17:02:02.953Z,29.9
2017-08-30T17:03:03.019Z,29.9
2017-08-30T17:04:03.401Z,29.8
2017-08-30T17:05:03.248Z,29.8
2017-08-30T17:06:03.102Z,29.8
2017-08-30T17:07:02.971Z,29.9
2017-08-30T17:08:03.220Z,29.9
2017-08-30T17:09:03.460Z,29.9
2017-08-30T17:10:03.310Z,29.9
2017-08-30T17:11:02.977Z,29.9
2017-08-30T17:12:03.017Z,30
2017-08-30T17:13:02.669Z,29.9
2017-08-30T17:14:02.930Z,29.9
2017-08-30T17:15:03.286Z,29.9
2017-08-30T17:16:03.176Z,29.8
2017-08-30T17:17:03.069Z,29.8
2017-08-30T17:18:03.309Z,29.9
2017-08-30T17:19:03.177Z,29.8
2017-08-30T17:20:03.413Z,29.9
2017-08-30T17:21:03.651Z,29.9
2017-08-30T17:22:02.315Z,29.9
2017-08-30T17:23:03.348Z,30
2017-08-30T17:24:03.428Z,30
2017-08-30T17:25:04.017Z,29.9
2017-08-30T17:26:03.235Z,30
2017-08-30T17:27:03.079Z,30
2017-08-30T17:28:02.942Z,29.9
2017-08-30T17:29:03.006Z,29.9
2017-08-30T17:30:03.375Z,29.9
2017-08-30T17:31:03.226Z,29.9
2017-08-30T17:32:03.260Z,29.9
2017-08-30T17:33:03.100Z,29.9
2017-08-30T17:34:03.178Z,29.9
2017-08-30T17:35:03.401Z,29.9
2017-08-30T17:36:04.158Z,29.9
2017-08-30T17:37:03.200Z,29.9
2017-08-30T17:38:03.251Z,29.9
2017-08-30T17:39:03.503Z,29.8
2017-08-30T17:40:03.724Z,29.9
2017-08-30T17:41:02.985Z,29.9
2017-08-30T17:42:03.843Z,29.8
2017-08-30T17:43:03.084Z,29.9
2017-08-30T17:44:02.937Z,29.8
2017-08-30T17:45:02.946Z,29.7
2017-08-30T17:46:03.115Z,29.9
2017-08-30T17:47:03.471Z,29.8
2017-08-30T17:48:03.356Z,29.8
2017-08-30T17:49:03.429Z,29.9
2017-08-30T17:50:03.528Z,29.8
2017-08-30T17:51:03.477Z,29.9
2017-08-30T17:52:04.024Z,29.8
2017-08-30T17:53:02.958Z,29.8
2017-08-30T17:54:02.641Z,29.7
2017-08-30T17:55:02.945Z,29.8
2017-08-30T17:56:02.637Z,29.8
2017-08-30T17:57:03.170Z,29.8
2017-08-30T17:58:03.268Z,29.8
2017-08-30T17:59:03.664Z,29.8
2017-08-30T18:00:03.373Z,29.8
2017-08-30T18:01:03.515Z,29.8
2017-08-30T18:02:03.730Z,29.8
2017-08-30T18:03:03.364Z,29.8
2017-08-30T18:04:03.641Z,29.7
2017-08-30T18:05:03.157Z,29.7
2017-08-30T18:06:02.888Z,29.8
2017-08-30T18:07:02.952Z,29.7
2017-08-30T18:08:03.453Z,29.6
